Timeline UpdatesTrip UpdatesNews PostsPvt Posts♥♥Travel TipsAdmin PostsConv PostsFollowed PostsChat RequestsBlog PostsPNR Posts

Disclaimer
Search
 
 
Sun Nov 23, 2014 10:11:10 ISTHomeTrainsΣChainsAtlasPNRForumGalleryNewsFAQTripsMembersLoginFeedback
No Recent News for this Train
Other Trains in the News **new
Latest...
.
Sat Feb 02, 2013 (04:10PM)
⇐ Return Journey: Train# 51187

51188/Katni - Bhusaval Passenger (UnReserved)

Time-Table HAS CHANGED.
Sep 05 2014 (2:13PM)
Change Departure Station:
Change Arrival Station:
Post a Train Travel TipPost a Train Travel Tip **new
Post a Comment/Question/Picture/VideoPost a Comment/Question/Picture/Video
Pantry/Catering
✕ NO Pantry Car
✕ NO Catering
RSA - Rake Sharing
Rake/Coach Composition
Loco
KTE-ET: KTE/ET WDM-3A ET-BSL: BSL/ET WAP-4
News    PNR    Forum    Time-Table    Availability    Fare Chart    Map    Arr/Dep History    Trips    Gallery    ΣChains    X/O    Timeline    
Travel Time: 7h 0m    23 halts    Distance: 199 km    Avg Speed: 28 km/hr
Type: Passenger
Zone: CR/Central
Departs @ 10:00 (Avg 4h 3m late)
Platform# 1
SMTWTFS
Khirkiya/KKN 
Arrives @ 17:00 (Avg 2h 40m late)
Platform# 6
SMTWTFS
Bhusaval Junction/BSL 

23 halts. 24 intermediate Stations between Khirkiya and Bhusaval Junction

Show ALL intermediate Stations  Show Old Time-Table

#TrkCodeStation NameX/OArrivesAvgDepartsAvgHaltPFDay#KmSpeedElevZoneAddress
1%==|KTEKatni Junction (6)  -22:20+4251-443.232387mWCRKatni, Madhya Pradesh
2|==|MDRRMadhavnagar Road (2)  22:30-22:31-1m--1-437.947398mWCRMadhavnagar, Madhya Pradesh
3|==|NWRNiwar (2)X  22:41+1:4022:42+1:411m--1-430.052412mWCRPipraundh, Madhya Pradesh
4|==|SNRRSansarpur (2)X  22:51-22:52-1m--1-422.259436mWCRNational Highway 7, Madhya Pradesh
5|==|SBDSleemanabad Road (2)X  22:59+3023:00+311m--1-415.357434mWCRSleemanabad, Madhya Pradesh
6|==|DDCEDundi (2)  23:10+1:3623:11+1:441m--1-405.860415mWCRDundi, Madhya Pradesh
7|==|SHRSihora Road (2)X  23:26+1:2823:28+1:382m--1-390.961388mWCRJabalpur, Madhya Pradesh
8|==|GSPRGosalpur (2)XO  23:39+1:5623:40+2:111m--1-379.857396mWCRJabalpur, Madhya Pradesh
9|==|DOEDeori (2)  23:51+1:5123:52+1:541m--1-369.348392mWCRJabalpur, Madhya Pradesh
10|==|ADTLAdhartal (2)  00:03+2:1100:04+2:141m--2-360.582393mWCRJabalpur, Madhya Pradesh
11|==|JBPJabalpur Junction (4)X  00:20 00:10+3500:30 00:20+4210m12-352.314416mWCRJabalpur, Madhya Pradesh
12|==|MMLMadan Mahal (3)  00:34+1:3300:36+1:352m12-349.056428mWCRJabalpur, Madhya Pradesh
13|==|BRGTBheraghat (2)  00:50+2:5300:51+3:051m--2-335.952389mWCRBheraghat, Madhya Pradesh
14|==|BHTNBhitoni (2)X  01:04 01:06+3:0101:05 01:08+3:011 2m--2-322.769377mWCRJabalpur, Madhya Pradesh
15|==|BMRBikrampur (2)  01:17 01:18+2:4001:18 01:20+2:471 2m--2-311.259353mWCRBikrampur Dist Narsingpur., Madhya Pradesh
16|==|SRIDShridham (3)X  01:29 01:32+1:1001:31 01:34+1:102m32-299.466373mWCRShridham, Madhya Pradesh
17|==!KKBKarak Bel (2)  01:48+3:0601:49+3:081m--2-284.029375mWCRKarak Bel, Madhya Pradesh
18|==!BELDBelkhera (2)  01:58+2:3401:59+2:351m--2-279.633367mWCRState Highway 22, Madhya Pradesh
19!==|GPCGhatpindrai (2)O  02:09+3:0202:10+3:021m--2-274.135366mWCRGhatpindra, Madhya Pradesh
20|==|NUNarsinghpur (2)X  02:20+2:0502:22+2:152m22-268.368365mWCRNarsimhapur, Madhya Pradesh
21|==|KYKareli (2)X  02:36+3:0302:37+3:041m22-252.447361mWCRKareli, Madhya Pradesh
22|==|KFYKarapgaon (2)X  02:48-02:49-1m--2-243.847363mWCRNational Highway 26, Madhya Pradesh
23|==|BNEBohani (2)XO  02:58+3:0902:59+3:141m--2-236.978361mWCRNarsinghpur, Madhya Pradesh
24|==|GARGadarwara (2)XO  03:09+3:1503:10+3:211m22-223.956352mWCRNarsinghpur, Madhya Pradesh
25|==|SCKRSalichauka Road (2)X  03:25+3:1803:26+3:191m--2-210.061355mWCRGadarwara, Madhya Pradesh
26|==|JHTJunehta (2)  03:36-03:37-1m--2-199.951353mWCRState Highway 22, Madhya Pradesh
27|==|BKHBankhedi (2)X  03:44+3:1703:46+3:232m--2-194.069351mWCRBankheri, Madhya Pradesh
28|==|PPIPipariya (3)X  04:03+2:3104:05+2:362m32-174.640338mWCRPiparia, Madhya Pradesh
29|==|SXFSobhapur (2)O  04:18-04:19-1m--2-165.945338mWCRState Highway 22, Madhya Pradesh
30|==|SGPSohagpur (2)X  04:31+3:2104:33+3:272m--2-156.943340mWCRSohagpur, Madhya Pradesh
31|==|GMDGuramkhedi (2)  04:47+3:1904:48+3:261m--2-146.849337mWCRGuramkhedi, Madhya Pradesh
32|=-|BGTABagratawa (2)  05:04+3:2105:05+3:291m--2-133.829338mWCRBagra Tawa, Madhya Pradesh
33|-=|SQLSontalai (2)X  05:19+3:3005:20+3:331m--2-126.927329mWCRItarsi, Madhya Pradesh
34|==|GROGurra (2)X  05:40+3:1905:41+3:201m--2-117.916327mWCRItarsi, Madhya Pradesh
35|==|ETItarsi Junction (7)  06:20+1:3006:45+1:2925m--2-107.357329mWCRItarsi 461111, Madhya Pradesh
36/==/DRADularia (2)  06:58+4:0206:59+4:061m--2-95.142318mWCRItarsi, Madhya Pradesh
37/==/KTZKhutwansa (2)X  07:07-07:08-1m--2-89.555325mWCRSH 15, Madhya Pradesh
38/==/DKIDharamkundi (2)O  07:17 07:16+4:0207:18+4:021 2m--2-82.131314mWCRSH 15, Madhya Pradesh
39/==/BPFBanapura (2)  07:34+3:5307:35+3:541m--2-73.949314mWCRBanapura, Madhya Pradesh
40/==/BIFBhaironpur (2)O  07:44+3:5307:45+3:541m--2-66.649322mWCRSH 15, Madhya Pradesh
41/==/PGLPagdhal (2)X  07:54+3:5207:55+4:011m--2-59.341317mWCRPagdhal, Madhya Pradesh
42/==/CGOChhidgaon (2)X  08:01-08:02-1m--2-55.126309mWCRHarda, Madhya Pradesh
43/==/TBNTimarni (2)  08:24+4:1008:25+4:111m--2-45.647308mWCRTimarni, Madhya Pradesh
44/==/CRKCharkhera (2)XO  08:34+3:4408:35+3:521m--2-38.623298mWCRBarkalan, Madhya Pradesh
45/==/HDHarda (3)X  08:53+4:0508:55+4:142m--2-31.574289mWCRHarda, Madhya Pradesh
46/==/PALPalasner (2)  09:02 09:01+3:3909:03+3:391 2m--2-24.144296mWCRHarda, Madhya Pradesh
47/==/MUOMasangaon (2)XO  09:12 09:11+3:3609:13+3:361 2m--2-18.212303mWCRSH 15, Madhya Pradesh
48/==/BRIBhiringi (2)  09:39 09:38+3:2209:40+3:301 2m--2-13.0133294mWCRSH 15, Madhya Pradesh
49/==/KROKurawan (2)X  09:44 09:43-09:45-1 2m--2-6.429297mWCRSH 15, Madhya Pradesh
50/==/KKNKhirkiya (2)»O  09:58+4:0310:00+4:032m120.041281mWCRSH 15, Madhya Pradesh
51/==/DRHIDagarhkeri (2)XO  10:17 10:16+3:2210:18+3:291 2m--210.921274mWCRState Highway 15, Madhya Pradesh
52/==/BRUDBarud (2)X  10:47 10:46+3:1010:48+3:191 2m--220.576273mWCRKhandwa, Madhya Pradesh
53/==/CAERChhanera (2)XO  10:56+3:1910:58+3:252m--230.723283mWCRChhanera, Madhya Pradesh
54/==/CKKDCharkheda Khurd (2)  11:17 11:16+3:1511:18+3:151 2m--237.524274mWCRKhandwa, Madhya Pradesh
55/==/SGBJSurgaon Banjari (2)  11:47 11:46+2:5611:48+3:221 2m--248.671298mWCRKhandwa, Madhya Pradesh
56/==/TLVTalvadiya (2)  11:58+3:2612:00+3:252m--260.463308mWCRKhandwa, Madhya Pradesh
57/==/MTAMathela (2)XO  12:09 12:08+3:2712:10+3:261 2m--268.76322mWCRKhandwa, Madhya Pradesh
58/==/KNWKhandwa Junction (5)  13:20+2:4113:30+2:4010m--276.144310mCRKhandwa, Madhya Pradesh
59/==/BRGJBargaon Gujar (2)  13:37+5:0913:38+5:091m--281.260316mCRKhandwa, Madhya Pradesh
60/==/BMABagmar (2)X  13:44+3:4413:45+3:441m--287.266335mCRState Highway 27, Madhya Pradesh
61/==/KDKKohdad (2)X  13:49+3:4613:50+3:461m--291.657344mCRState Highway 15, Madhya Pradesh
62/==/DGNDongargaon (2)  13:58+3:4713:59+3:571m1299.258373mCRBorgaon, Madhya Pradesh
63/==/SXASagphata (2)  14:07+5:3014:08+5:301m--2106.951350mCRKhandwa, Madhya Pradesh
64/==/MWAMandwa (2)X  14:15+3:5814:16+3:581m--2112.944317mCRState Highway 27, Madhya Pradesh
65/==/NPNRNepanagar (2)  14:24+4:1314:26+4:122m--2118.753289mCRState Highway 27, Madhya Pradesh
66/==/CDIChandni (2)X  14:34+3:5714:35+3:571m--2125.877276mCRNepanagar Rd, Madhya Pradesh
67/==/AGQAsirgarh Road (2)  14:43+3:5714:44+3:581m--2136.067259mCRState Highway 27, Madhya Pradesh
68/==/BAUBurhanpur (2)X  14:52+3:3514:55+3:353m12145.062269mCRBurhanpur, Madhya Pradesh
69/==/WGAWaghodaX  15:05+3:5815:06+3:591m--2155.260259mCRChorwad, Maharashtra
70/==/RVRaver (2)X  15:16+2:3015:18+2:302m--2165.268242mCRJalgaon, Maharashtra
71/==/NBNimbhora (2)X  15:27+2:2715:28+2:281m--2175.358229mCRJalgaon, Maharashtra
72/==/SAVSavda (2)  15:37-15:38-1m--2184.058220mCRSavda, Maharashtra
73/==/DSKDuskheda (2)X  15:47-15:48-1m--2192.76213mCRDuskheda Station, Maharashtra
74/==/BSLBhusaval Junction (8)•  17:00+2:40-62199.5-208mCRBhusaval 425201, Maharashtra
Scroll to Top
Scroll to Bottom